Terminal Aerodrome Forecast
Issued by NWS

Home | Current Version | Previous Version | Text Only | Print | Product List | Glossary On
Versions: 1 2 3 4 5 6 7 8 9 10 11 12 13 14 15
000
FTUS43 KPAH 200900 AAA
TAFCGI
TAF AMD
KCGI 200957Z 2010/2106 00000KT 1/2SM FG SKC
      TEMPO 2010/2012 1/4SM FG VV001
     FM201400 21008KT P6SM SCT045
     FM210000 21004KT P6SM FEW050=

USA.gov is the U.S. government's official web portal to all federal, state and local government web resources and services.